.
WxDataArchive / Data Records for 2010-11-18
2010-11-17 November 2010 2010-11-19

Data Records for Thursday, 18 November 2010

Time	Temp	Chill	HIndex	Humid	Dewpt	 Wind 	HiWind	WindDir	Rain 	Barom 
-----	----	-----	------	-----	-----	------	------	-------	-----	----- 
00:00	39.3	39.3	39.3	88	36.0	2	5	248	0.00	30.143 
00:05	39.2	39.2	39.2	88	35.9	1	3	248	0.00	30.143 
00:10	39.2	39.2	39.2	89	36.2	2	4	270	0.00	30.143 
00:15	39.2	39.2	39.2	89	36.2	1	3	248	0.00	30.144 
00:20	39.2	39.2	39.2	89	36.2	2	4	248	0.00	30.144 
00:25	39.1	39.1	39.1	89	36.1	1	3	248	0.00	30.144 
00:30	39.1	39.1	39.1	90	36.4	1	4	248	0.00	30.145 
00:35	38.9	38.9	38.9	90	36.2	0	3	248	0.00	30.145 
00:40	38.9	38.9	38.9	90	36.2	0	2	248	0.00	30.145 
00:45	38.9	38.9	38.9	90	36.2	0	2	248	0.00	30.145 
00:50	38.9	38.9	38.9	91	36.5	0	2	248	0.00	30.145 
00:55	38.9	38.9	38.9	91	36.5	0	2	248	0.00	30.145 
01:00	38.9	38.9	38.9	91	36.5	0	1	248	0.00	30.143 
01:05	38.9	38.9	38.9	91	36.5	1	4	248	0.00	30.143 
01:10	38.9	38.9	38.9	91	36.5	1	3	248	0.00	30.143 
01:15	38.8	38.8	38.8	91	36.4	1	3	248	0.00	30.142 
01:20	38.8	38.8	38.8	91	36.4	1	4	248	0.00	30.142 
01:25	38.8	38.8	38.8	91	36.4	1	3	248	0.00	30.142 
01:30	38.9	38.9	38.9	92	36.8	1	2	248	0.00	30.140 
01:35	38.9	38.9	38.9	92	36.8	2	4	248	0.00	30.140 
01:40	38.9	38.9	38.9	92	36.8	1	3	248	0.00	30.140 
01:45	38.9	38.9	38.9	92	36.8	1	4	270	0.00	30.137 
01:50	38.8	38.8	38.8	92	36.7	2	4	270	0.00	30.137 
01:55	38.8	38.8	38.8	92	36.7	1	3	270	0.00	30.137 
02:00	38.6	38.6	38.6	92	36.5	1	3	270	0.00	30.134 
02:05	38.6	38.6	38.6	92	36.5	1	3	270	0.00	30.134 
02:10	38.6	38.6	38.6	92	36.5	1	3	270	0.00	30.134 
02:15	38.5	38.5	38.5	92	36.4	1	3	270	0.00	30.141 
02:20	38.5	38.5	38.5	92	36.4	1	2	270	0.00	30.141 
02:25	38.5	38.5	38.5	92	36.4	1	2	270	0.00	30.141 
02:30	38.5	38.5	38.5	92	36.4	1	4	270	0.00	30.144 
02:35	38.6	38.6	38.6	93	36.8	1	3	270	0.00	30.144 
02:40	38.6	38.6	38.6	93	36.8	1	3	270	0.00	30.144 
02:45	38.6	38.6	38.6	93	36.8	1	4	270	0.00	30.151 
02:50	38.8	38.8	38.8	93	37.0	0	1	248	0.00	30.151 
02:55	38.8	38.8	38.8	93	37.0	0	2	248	0.00	30.151 
03:00	38.9	38.9	38.9	93	37.1	0	2	248	0.00	30.153 
03:05	38.9	38.9	38.9	93	37.1	1	2	248	0.00	30.153 
03:10	39.1	39.1	39.1	93	37.2	1	4	248	0.00	30.153 
03:15	39.1	39.1	39.1	94	37.5	1	3	248	0.00	30.156 
03:20	39.1	39.1	39.1	94	37.5	1	3	248	0.00	30.156 
03:25	39.1	39.1	39.1	94	37.5	0	2	248	0.00	30.156 
03:30	39.1	39.1	39.1	94	37.5	0	1	248	0.00	30.154 
03:35	39.1	39.1	39.1	94	37.5	0	1	248	0.00	30.154 
03:40	39.2	39.2	39.2	94	37.6	0	1	248	0.00	30.154 
03:45	39.3	39.3	39.3	94	37.7	0	1	248	0.00	30.147 
03:50	39.3	39.3	39.3	94	37.7	0	0	---	0.00	30.147 
03:55	39.3	39.3	39.3	94	37.7	0	1	248	0.00	30.147 
04:00	39.5	39.5	39.5	94	37.9	0	1	248	0.00	30.144 
04:05	39.5	39.5	39.5	94	37.9	0	1	248	0.00	30.144 
04:10	39.5	39.5	39.5	94	37.9	0	1	248	0.00	30.144 
04:15	39.6	39.6	39.6	94	38.0	0	1	248	0.00	30.143 
04:20	39.6	39.6	39.6	94	38.0	0	0	---	0.00	30.143 
04:25	39.8	39.8	39.8	94	38.2	0	1	248	0.00	30.143 
04:30	39.8	39.8	39.8	94	38.2	0	1	248	0.00	30.143 
04:35	39.8	39.8	39.8	94	38.2	0	0	---	0.00	30.143 
04:40	39.9	39.9	39.9	94	38.3	0	1	248	0.00	30.143 
04:45	39.9	39.9	39.9	94	38.3	0	1	248	0.00	30.148 
04:50	39.9	39.9	39.9	94	38.3	0	0	---	0.00	30.148 
04:55	39.9	39.9	39.9	94	38.3	0	1	248	0.00	30.148 
05:00	40.1	40.1	40.1	94	38.5	0	1	248	0.00	30.156 
05:05	40.1	40.1	40.1	94	38.5	0	2	248	0.00	30.156 
05:10	40.2	40.2	40.2	94	38.6	0	0	---	0.00	30.156 
05:15	40.2	40.2	40.2	94	38.6	0	1	248	0.00	30.161 
05:20	40.3	40.3	40.3	94	38.7	0	1	248	0.00	30.161 
05:25	40.3	40.3	40.3	94	38.7	0	1	248	0.00	30.161 
05:30	40.3	40.3	40.3	94	38.7	0	0	---	0.00	30.162 
05:35	40.5	40.5	40.5	94	38.9	0	0	---	0.00	30.162 
05:40	40.5	40.5	40.5	94	38.9	0	0	---	0.00	30.162 
05:45	40.5	40.5	40.5	94	38.9	0	1	248	0.00	30.168 
05:50	40.6	40.6	40.6	94	39.0	0	2	248	0.00	30.168 
05:55	40.6	40.6	40.6	94	39.0	0	1	248	0.00	30.168 
06:00	40.6	40.6	40.6	94	39.0	0	1	248	0.00	30.174 
06:05	40.8	40.8	40.8	94	39.2	0	2	248	0.00	30.174 
06:10	40.8	40.8	40.8	94	39.2	1	3	248	0.00	30.174 
06:15	40.8	40.8	40.8	94	39.2	0	2	248	0.00	30.178 
06:20	40.8	40.8	40.8	94	39.2	0	2	248	0.00	30.178 
06:25	40.8	40.8	40.8	94	39.2	0	2	248	0.00	30.178 
06:30	40.8	40.8	40.8	94	39.2	0	2	248	0.00	30.183 
06:35	40.8	40.8	40.8	94	39.2	0	1	248	0.00	30.183 
06:40	40.8	40.8	40.8	94	39.2	1	3	248	0.00	30.183 
06:45	40.8	40.8	40.8	93	38.9	0	0	---	0.00	30.187 
06:50	40.8	40.8	40.8	93	38.9	0	0	---	0.00	30.187 
06:55	40.8	40.8	40.8	93	38.9	0	0	---	0.00	30.187 
07:00	40.8	40.8	40.8	93	38.9	0	1	248	0.00	30.192 
07:05	40.8	40.8	40.8	93	38.9	0	0	---	0.00	30.192 
07:10	40.8	40.8	40.8	93	38.9	0	0	---	0.00	30.192 
07:15	40.8	40.8	40.8	93	38.9	0	1	248	0.00	30.196 
07:20	40.8	40.8	40.8	93	38.9	0	0	---	0.00	30.196 
07:25	40.8	40.8	40.8	92	38.7	0	1	248	0.00	30.196 
07:30	40.8	40.8	40.8	92	38.7	0	1	248	0.00	30.199 
07:35	40.8	40.8	40.8	92	38.7	0	1	248	0.00	30.199 
07:40	40.8	40.8	40.8	92	38.7	0	2	248	0.00	30.199 
07:45	40.8	40.8	40.8	92	38.7	0	2	248	0.00	30.210 
07:50	40.8	40.8	40.8	91	38.4	0	1	248	0.00	30.210 
07:55	40.8	40.8	40.8	91	38.4	0	1	248	0.00	30.210 
08:00	40.8	40.8	40.8	91	38.4	0	1	248	0.00	30.216 
08:05	40.8	40.8	40.8	90	38.1	0	1	248	0.00	30.216 
08:10	40.8	40.8	40.8	90	38.1	0	1	248	0.00	30.216 
08:15	40.8	40.8	40.8	89	37.8	0	2	248	0.00	30.224 
08:20	40.8	40.8	40.8	89	37.8	0	1	248	0.00	30.224 
08:25	40.8	40.8	40.8	88	37.5	0	2	248	0.00	30.224 
08:30	40.8	40.8	40.8	88	37.5	0	2	248	0.00	30.228 
08:35	40.9	40.9	40.9	88	37.6	0	1	248	0.00	30.228 
08:40	41.1	41.1	41.1	87	37.5	0	1	248	0.00	30.228 
08:45	41.1	41.1	41.1	86	37.2	0	1	248	0.00	30.232 
08:50	41.1	41.1	41.1	86	37.2	0	1	248	0.00	30.232 
08:55	41.1	41.1	41.1	85	36.9	1	3	248	0.00	30.232 
09:00	41.2	41.2	41.2	84	36.7	0	1	248	0.00	30.235 
09:05	41.2	41.2	41.2	84	36.7	1	2	248	0.00	30.235 
09:10	41.2	41.2	41.2	83	36.4	1	3	248	0.00	30.235 
09:15	41.3	41.3	41.3	83	36.5	0	2	248	0.00	30.239 
09:20	41.3	41.3	41.3	82	36.2	1	3	248	0.00	30.239 
09:25	41.3	41.3	41.3	81	35.9	1	3	248	0.00	30.239 
09:30	41.5	41.5	41.5	81	36.1	1	3	248	0.00	30.242 
09:35	41.6	41.6	41.6	81	36.2	1	4	248	0.00	30.242 
09:40	41.6	41.6	41.6	81	36.2	1	2	315	0.00	30.242 
09:45	41.8	41.8	41.8	80	36.1	0	2	292	0.00	30.243 
09:50	41.8	41.8	41.8	79	35.8	1	2	292	0.00	30.243 
09:55	41.9	41.9	41.9	79	35.9	1	2	292	0.00	30.243 
10:00	42.1	42.1	42.1	79	36.1	0	2	338	0.00	30.245 
10:05	42.3	42.3	42.3	79	36.3	0	2	338	0.00	30.245 
10:10	42.5	42.5	42.5	78	36.1	0	3	338	0.00	30.245 
10:15	42.5	42.5	42.5	77	35.8	1	3	270	0.00	30.246 
10:20	42.6	42.6	42.6	76	35.6	1	4	270	0.00	30.246 
10:25	42.8	42.8	42.8	76	35.8	1	4	270	0.00	30.246 
10:30	43.1	43.1	43.1	76	36.1	0	4	270	0.00	30.246 
10:35	43.2	43.2	43.2	75	35.8	0	2	270	0.00	30.246 
10:40	43.3	43.3	43.3	74	35.6	1	2	338	0.00	30.246 
10:45	43.3	43.3	43.3	74	35.6	1	3	315	0.00	30.253 
10:50	43.5	43.5	43.5	74	35.8	0	3	315	0.00	30.253 
10:55	43.6	43.6	43.6	74	35.9	0	2	315	0.00	30.253 
11:00	43.8	43.8	43.8	73	35.7	0	2	315	0.00	30.246 
11:05	43.9	43.9	43.9	72	35.5	0	3	315	0.00	30.246 
11:10	44.1	44.1	44.1	72	35.7	0	2	315	0.00	30.246 
11:15	44.1	44.1	44.1	71	35.3	0	2	315	0.00	30.244 
11:20	44.3	44.3	44.3	71	35.5	0	2	315	0.00	30.244 
11:25	44.5	44.5	44.5	69	35.0	1	3	315	0.00	30.244 
11:30	44.8	44.8	44.8	70	35.6	1	2	315	0.00	30.242 
11:35	45.4	45.4	45.4	69	35.8	1	2	315	0.00	30.242 
11:40	45.8	45.8	45.8	66	35.1	1	3	315	0.00	30.242 
11:45	45.5	45.5	45.5	63	33.6	1	5	0	0.00	30.243 
11:50	45.1	45.1	45.1	64	33.7	1	4	338	0.00	30.243 
11:55	44.9	44.9	44.9	65	33.9	0	2	338	0.00	30.243 
12:00	44.9	44.9	44.9	62	32.7	1	3	248	0.00	30.242 
12:05	45.1	45.1	45.1	62	32.9	1	3	338	0.00	30.242 
12:10	45.1	45.1	45.1	63	33.3	1	4	338	0.00	30.242 
12:15	44.9	44.9	44.9	59	31.5	2	4	270	0.00	30.239 
12:20	45.1	45.1	45.1	58	31.2	2	4	248	0.00	30.239 
12:25	45.2	45.2	45.2	58	31.3	2	5	270	0.00	30.239 
12:30	45.1	45.1	45.1	58	31.2	1	3	315	0.00	30.236 
12:35	44.9	44.9	44.9	58	31.0	2	4	292	0.00	30.236 
12:40	44.6	44.6	44.6	60	31.6	1	3	315	0.00	30.236 
12:45	44.5	44.5	44.5	62	32.3	1	4	315	0.00	30.236 
12:50	44.3	44.3	44.3	61	31.7	1	2	315	0.00	30.236 
12:55	44.3	44.3	44.3	62	32.1	1	3	315	0.00	30.236 
13:00	44.5	44.5	44.5	62	32.3	1	3	315	0.00	30.240 
13:05	44.5	44.5	44.5	62	32.3	1	3	338	0.00	30.240 
13:10	44.5	44.5	44.5	62	32.3	1	2	338	0.00	30.240 
13:15	44.5	44.5	44.5	62	32.3	1	3	338	0.00	30.234 
13:20	44.8	44.8	44.8	62	32.6	1	3	270	0.00	30.234 
13:25	44.8	44.8	44.8	62	32.6	1	3	270	0.00	30.234 
13:30	44.8	44.8	44.8	62	32.6	1	3	270	0.00	30.231 
13:35	44.9	44.9	44.9	62	32.7	1	3	270	0.00	30.231 
13:40	44.9	44.9	44.9	62	32.7	1	2	270	0.00	30.231 
13:45	44.9	44.9	44.9	62	32.7	1	4	0	0.00	30.228 
13:50	44.9	44.9	44.9	62	32.7	1	3	270	0.00	30.228 
13:55	45.1	45.1	45.1	61	32.5	2	4	292	0.00	30.228 
14:00	45.1	45.1	45.1	60	32.1	2	4	270	0.00	30.227 
14:05	45.1	45.1	45.1	61	32.5	1	3	270	0.00	30.227 
14:10	44.9	44.9	44.9	62	32.7	1	4	0	0.00	30.227 
14:15	44.6	44.6	44.6	61	32.0	2	4	292	0.00	30.232 
14:20	44.5	44.5	44.5	61	31.9	1	4	292	0.00	30.232 
14:25	44.3	44.3	44.3	63	32.5	1	3	315	0.00	30.232 
14:30	44.2	44.2	44.2	64	32.8	1	3	338	0.00	30.232 
14:35	44.2	44.2	44.2	64	32.8	1	3	338	0.00	30.232 
14:40	44.1	44.1	44.1	62	31.9	2	5	338	0.00	30.232 
14:45	44.1	44.1	44.1	62	31.9	1	3	292	0.00	30.239 
14:50	44.1	44.1	44.1	63	32.3	1	5	292	0.00	30.239 
14:55	43.9	43.9	43.9	62	31.7	2	6	292	0.00	30.239 
15:00	43.9	43.9	43.9	60	30.9	2	5	292	0.00	30.244 
15:05	43.9	43.9	43.9	58	30.1	2	4	315	0.00	30.244 
15:10	44.1	44.1	44.1	59	30.7	2	4	270	0.00	30.244 
15:15	44.1	44.1	44.1	59	30.7	1	4	292	0.00	30.241 
15:20	44.2	44.2	44.2	59	30.8	2	7	0	0.00	30.241 
15:25	44.2	44.2	44.2	59	30.8	1	4	248	0.00	30.241 
15:30	44.2	44.2	44.2	58	30.4	2	5	248	0.00	30.241 
15:35	43.9	43.9	43.9	56	29.2	2	4	338	0.00	30.241 
15:40	44.1	44.1	44.1	56	29.4	1	5	315	0.00	30.241 
15:45	44.1	44.1	44.1	56	29.4	2	4	270	0.00	30.239 
15:50	44.3	44.3	44.3	57	30.0	1	7	292	0.00	30.239 
15:55	44.6	44.6	44.6	56	29.9	2	4	292	0.00	30.239 
16:00	44.6	44.6	44.6	55	29.4	3	6	270	0.00	30.244 
16:05	44.5	44.5	44.5	56	29.8	1	4	338	0.00	30.244 
16:10	44.3	44.3	44.3	56	29.6	1	4	338	0.00	30.244 
16:15	44.1	44.1	44.1	55	29.0	1	4	292	0.00	30.245 
16:20	43.6	43.6	43.6	54	28.1	1	4	270	0.00	30.245 
16:25	43.3	43.3	43.3	54	27.8	0	2	270	0.00	30.245 
16:30	43.2	43.2	43.2	54	27.7	0	2	270	0.00	30.249 
16:35	43.1	43.1	43.1	53	27.1	1	4	270	0.00	30.249 
16:40	42.9	42.9	42.9	51	26.0	2	4	315	0.00	30.249 
16:45	42.8	42.8	42.8	53	26.9	2	4	270	0.00	30.259 
16:50	42.6	42.6	42.6	56	28.0	2	5	270	0.00	30.259 
16:55	42.3	42.3	42.3	57	28.2	1	4	315	0.00	30.259 
17:00	42.1	42.1	42.1	57	28.0	2	4	292	0.00	30.262 
17:05	41.9	41.9	41.9	58	28.2	1	3	315	0.00	30.262 
17:10	41.6	41.6	41.6	59	28.3	1	3	270	0.00	30.262 
17:15	41.5	41.5	41.5	59	28.3	1	3	315	0.00	30.273 
17:20	41.3	41.3	41.3	60	28.5	1	5	315	0.00	30.273 
17:25	41.1	41.1	41.1	61	28.7	0	2	338	0.00	30.273 
17:30	40.9	40.9	40.9	62	28.9	0	2	338	0.00	30.274 
17:35	40.8	40.8	40.8	62	28.8	1	3	338	0.00	30.274 
17:40	40.6	40.6	40.6	63	29.0	0	3	338	0.00	30.274 
17:45	40.6	40.6	40.6	63	29.0	1	3	315	0.00	30.276 
17:50	40.5	40.5	40.5	64	29.3	0	3	338	0.00	30.276 
17:55	40.2	40.2	40.2	64	29.0	1	3	338	0.00	30.276 
18:00	40.1	40.1	40.1	65	29.3	1	3	315	0.00	30.278 
18:05	40.1	40.1	40.1	65	29.3	1	3	315	0.00	30.278 
18:10	39.9	39.9	39.9	65	29.1	1	3	248	0.00	30.278 
18:15	39.8	39.8	39.8	65	29.0	1	3	248	0.00	30.280 
18:20	39.6	39.6	39.6	66	29.2	0	2	248	0.00	30.280 
18:25	39.6	39.6	39.6	66	29.2	0	3	248	0.00	30.280 
18:30	39.5	39.5	39.5	66	29.1	0	2	248	0.00	30.289 
18:35	39.3	39.3	39.3	67	29.3	0	1	248	0.00	30.289 
18:40	39.2	39.2	39.2	67	29.2	0	2	248	0.00	30.289 
18:45	38.9	38.9	38.9	67	28.9	0	2	0	0.00	30.294 
18:50	38.8	38.8	38.8	67	28.8	0	2	0	0.00	30.294 
18:55	38.5	38.5	38.5	67	28.5	0	0	---	0.00	30.294 
19:00	38.0	38.0	38.0	68	28.4	0	1	0	0.00	30.296 
19:05	37.8	37.8	37.8	67	27.8	0	1	0	0.00	30.296 
19:10	37.6	37.6	37.6	66	27.3	0	2	0	0.00	30.296 
19:15	37.6	37.6	37.6	66	27.3	0	2	0	0.00	30.296 
19:20	37.3	37.3	37.3	66	27.0	0	2	0	0.00	30.296 
19:25	37.2	37.2	37.2	66	26.9	0	2	0	0.00	30.296 
19:30	37.0	37.0	37.0	67	27.1	0	1	0	0.00	30.300 
19:35	36.8	36.8	36.8	67	26.9	0	0	---	0.00	30.300 
19:40	36.6	36.6	36.6	68	27.1	0	1	0	0.00	30.300 
19:45	36.3	36.3	36.3	68	26.8	0	1	0	0.00	30.311 
19:50	36.2	36.2	36.2	69	27.0	0	1	0	0.00	30.311 
19:55	36.2	36.2	36.2	69	27.0	0	1	0	0.00	30.311 
20:00	36.0	36.0	36.0	69	26.8	0	2	0	0.00	30.310 
20:05	36.0	36.0	36.0	69	26.8	0	1	0	0.00	30.310 
20:10	35.9	35.9	35.9	69	26.7	0	0	---	0.00	30.310 
20:15	35.8	35.8	35.8	70	27.0	0	1	0	0.00	30.312 
20:20	35.6	35.6	35.6	70	26.8	0	0	---	0.00	30.312 
20:25	35.3	35.3	35.3	70	26.5	0	0	---	0.00	30.312 
20:30	35.0	35.0	35.0	71	26.6	0	0	---	0.00	30.311 
20:35	34.9	34.9	34.9	71	26.5	0	0	---	0.00	30.311 
20:40	34.6	34.6	34.6	72	26.5	0	0	---	0.00	30.311 
20:45	34.4	34.4	34.4	73	26.7	0	0	---	0.00	30.304 
20:50	34.4	34.4	34.4	73	26.7	0	0	---	0.00	30.304 
20:55	34.4	34.4	34.4	73	26.7	0	0	---	0.00	30.304 
21:00	34.1	34.1	34.1	73	26.4	0	0	---	0.00	30.302 
21:05	33.8	33.8	33.8	74	26.4	0	0	---	0.00	30.302 
21:10	33.7	33.7	33.7	74	26.3	0	0	---	0.00	30.302 
21:15	33.4	33.4	33.4	75	26.3	0	0	---	0.00	30.302 
21:20	33.1	33.1	33.1	75	26.1	0	0	---	0.00	30.302 
21:25	32.7	32.7	32.7	75	25.7	0	0	---	0.00	30.302 
21:30	32.4	32.4	32.4	76	25.7	0	0	---	0.00	30.312 
21:35	32.1	32.1	32.1	77	25.7	0	0	---	0.00	30.312 
21:40	31.8	31.8	31.8	77	25.4	0	0	---	0.00	30.312 
21:45	31.6	31.6	31.6	78	25.5	0	0	---	0.00	30.313 
21:50	31.3	31.3	31.3	78	25.3	0	0	---	0.00	30.313 
21:55	31.3	31.3	31.3	79	25.6	0	0	---	0.00	30.313 
22:00	31.5	31.5	31.5	80	26.1	0	0	---	0.00	30.316 
22:05	31.5	31.5	31.5	80	26.1	0	0	---	0.00	30.316 
22:10	31.3	31.3	31.3	80	25.9	0	0	---	0.00	30.316 
22:15	31.2	31.2	31.2	81	26.1	0	0	---	0.00	30.317 
22:20	31.0	31.0	31.0	81	25.9	0	0	---	0.00	30.317 
22:25	30.9	30.9	30.9	81	25.8	0	0	---	0.00	30.317 
22:30	30.7	30.7	30.7	81	25.6	0	0	---	0.00	30.322 
22:35	30.7	30.7	30.7	81	25.6	0	0	---	0.00	30.322 
22:40	30.6	30.6	30.6	82	25.8	0	0	---	0.00	30.322 
22:45	30.4	30.4	30.4	82	25.6	0	0	---	0.00	30.321 
22:50	30.3	30.3	30.3	82	25.5	0	0	---	0.00	30.321 
22:55	30.3	30.3	30.3	83	25.8	0	1	0	0.00	30.321 
23:00	30.4	30.4	30.4	83	25.9	0	0	---	0.00	30.328 
23:05	30.6	30.6	30.6	83	26.1	0	0	---	0.00	30.328 
23:10	30.6	30.6	30.6	83	26.1	0	0	---	0.00	30.328 
23:15	30.4	30.4	30.4	83	25.9	0	0	---	0.00	30.328 
23:20	30.6	30.6	30.6	84	26.4	0	0	---	0.00	30.328 
23:25	30.6	30.6	30.6	84	26.4	0	0	---	0.00	30.328 
23:30	30.6	30.6	30.6	84	26.4	0	0	---	0.00	30.329 
23:35	30.4	30.4	30.4	84	26.2	0	0	---	0.00	30.329 
23:40	30.4	30.4	30.4	84	26.2	0	0	---	0.00	30.329 
23:45	30.6	30.6	30.6	84	26.4	0	0	---	0.00	30.328 
23:50	30.7	30.7	30.7	84	26.4	0	0	---	0.00	30.328 
23:55	30.7	30.7	30.7	84	26.4	0	0	---	0.00	30.328 

CoCoRaHS
IN-AL-39
A2 Web Hosting
Creative Commons License
GoDaddy
search engine by freefind advanced

loaded 2018-11-15 04:00:53 • last modified 2010-11-18 10:43:29
Privacy PolicyDisclaimer
• wx.awcolley.com is powered by PmWiki v.2002016 •
• all content (unless otherwise noted) © 2018 A W Colley